sensor_id;sensor_type;location;lat;lon;timestamp;P1;durP1;ratioP1;P2;durP2;ratioP2
55575;SDS011;41437;45.478;9.116;2022-11-20T00:02:17;55.22;;;31.23;;
55575;SDS011;41437;45.478;9.116;2022-11-20T00:05:20;55.08;;;31.67;;
55575;SDS011;41437;45.478;9.116;2022-11-20T00:08:22;60.38;;;33.80;;
55575;SDS011;41437;45.478;9.116;2022-11-20T00:11:25;61.30;;;32.47;;
55575;SDS011;41437;45.478;9.116;2022-11-20T00:14:30;54.75;;;31.42;;
55575;SDS011;41437;45.478;9.116;2022-11-20T00:17:31;49.63;;;28.10;;
55575;SDS011;41437;45.478;9.116;2022-11-20T00:20:33;49.92;;;28.73;;
55575;SDS011;41437;45.478;9.116;2022-11-20T00:23:35;47.72;;;26.63;;
55575;SDS011;41437;45.478;9.116;2022-11-20T00:26:40;40.40;;;24.35;;
55575;SDS011;41437;45.478;9.116;2022-11-20T00:29:43;46.15;;;26.55;;
55575;SDS011;41437;45.478;9.116;2022-11-20T00:32:44;46.50;;;27.70;;
55575;SDS011;41437;45.478;9.116;2022-11-20T00:35:46;46.15;;;26.70;;
55575;SDS011;41437;45.478;9.116;2022-11-20T00:38:50;43.53;;;25.42;;
55575;SDS011;41437;45.478;9.116;2022-11-20T00:41:53;42.78;;;26.30;;
55575;SDS011;41437;45.478;9.116;2022-11-20T00:44:56;42.05;;;24.38;;
55575;SDS011;41437;45.478;9.116;2022-11-20T00:47:57;35.28;;;21.08;;
55575;SDS011;41437;45.478;9.116;2022-11-20T00:50:59;35.60;;;20.30;;
55575;SDS011;41437;45.478;9.116;2022-11-20T00:54:03;33.17;;;19.95;;
55575;SDS011;41437;45.478;9.116;2022-11-20T00:57:05;29.88;;;18.27;;
55575;SDS011;41437;45.478;9.116;2022-11-20T01:00:09;32.47;;;18.88;;
55575;SDS011;41437;45.478;9.116;2022-11-20T01:06:13;32.60;;;18.45;;
55575;SDS011;41437;45.478;9.116;2022-11-20T01:09:16;30.75;;;19.42;;
55575;SDS011;41437;45.478;9.116;2022-11-20T01:12:18;40.55;;;23.65;;
55575;SDS011;41437;45.478;9.116;2022-11-20T01:15:21;37.80;;;23.73;;
55575;SDS011;41437;45.478;9.116;2022-11-20T01:18:22;29.23;;;18.15;;
55575;SDS011;41437;45.478;9.116;2022-11-20T01:21:24;30.23;;;18.38;;
55575;SDS011;41437;45.478;9.116;2022-11-20T01:24:27;29.23;;;17.65;;
55575;SDS011;41437;45.478;9.116;2022-11-20T01:27:29;29.60;;;18.23;;
55575;SDS011;41437;45.478;9.116;2022-11-20T01:30:33;29.80;;;18.35;;
55575;SDS011;41437;45.478;9.116;2022-11-20T01:33:35;31.10;;;18.85;;
55575;SDS011;41437;45.478;9.116;2022-11-20T01:36:37;27.83;;;18.55;;
55575;SDS011;41437;45.478;9.116;2022-11-20T01:39:39;30.45;;;19.33;;
55575;SDS011;41437;45.478;9.116;2022-11-20T01:42:44;32.13;;;18.73;;
55575;SDS011;41437;45.478;9.116;2022-11-20T01:46:08;29.13;;;18.17;;
55575;SDS011;41437;45.478;9.116;2022-11-20T01:49:16;34.38;;;20.08;;
55575;SDS011;41437;45.478;9.116;2022-11-20T01:52:24;30.50;;;20.42;;
55575;SDS011;41437;45.478;9.116;2022-11-20T01:55:30;31.33;;;18.67;;
55575;SDS011;41437;45.478;9.116;2022-11-20T01:58:36;32.40;;;18.90;;
55575;SDS011;41437;45.478;9.116;2022-11-20T02:01:44;32.30;;;19.42;;
55575;SDS011;41437;45.478;9.116;2022-11-20T02:04:46;30.10;;;18.60;;
55575;SDS011;41437;45.478;9.116;2022-11-20T02:07:48;30.50;;;18.35;;
55575;SDS011;41437;45.478;9.116;2022-11-20T02:10:54;30.58;;;18.33;;
55575;SDS011;41437;45.478;9.116;2022-11-20T02:13:55;28.17;;;17.50;;
55575;SDS011;41437;45.478;9.116;2022-11-20T02:16:57;34.30;;;19.70;;
55575;SDS011;41437;45.478;9.116;2022-11-20T02:19:59;32.63;;;18.38;;
55575;SDS011;41437;45.478;9.116;2022-11-20T02:23:03;33.85;;;20.10;;
55575;SDS011;41437;45.478;9.116;2022-11-20T02:26:12;31.52;;;19.38;;
55575;SDS011;41437;45.478;9.116;2022-11-20T02:29:17;32.13;;;20.13;;
55575;SDS011;41437;45.478;9.116;2022-11-20T02:32:25;33.40;;;21.35;;
55575;SDS011;41437;45.478;9.116;2022-11-20T02:38:47;32.47;;;20.27;;
55575;SDS011;41437;45.478;9.116;2022-11-20T02:41:52;34.70;;;20.08;;
55575;SDS011;41437;45.478;9.116;2022-11-20T02:44:55;35.50;;;20.42;;
55575;SDS011;41437;45.478;9.116;2022-11-20T02:47:56;32.00;;;19.25;;
55575;SDS011;41437;45.478;9.116;2022-11-20T02:50:58;31.45;;;18.83;;
55575;SDS011;41437;45.478;9.116;2022-11-20T02:54:00;32.35;;;20.00;;
55575;SDS011;41437;45.478;9.116;2022-11-20T02:57:03;31.65;;;19.45;;
55575;SDS011;41437;45.478;9.116;2022-11-20T03:00:05;32.57;;;20.03;;
55575;SDS011;41437;45.478;9.116;2022-11-20T03:03:08;28.42;;;18.05;;
55575;SDS011;41437;45.478;9.116;2022-11-20T03:06:10;29.85;;;18.40;;
55575;SDS011;41437;45.478;9.116;2022-11-20T03:09:12;29.65;;;18.77;;
55575;SDS011;41437;45.478;9.116;2022-11-20T03:12:15;29.25;;;19.52;;
55575;SDS011;41437;45.478;9.116;2022-11-20T03:15:17;31.42;;;19.10;;
55575;SDS011;41437;45.478;9.116;2022-11-20T03:18:18;30.08;;;18.48;;
55575;SDS011;41437;45.478;9.116;2022-11-20T03:21:20;28.77;;;18.52;;
55575;SDS011;41437;45.478;9.116;2022-11-20T03:24:22;31.30;;;19.45;;
55575;SDS011;41437;45.478;9.116;2022-11-20T03:27:25;30.20;;;19.60;;
55575;SDS011;41437;45.478;9.116;2022-11-20T03:30:26;28.75;;;18.58;;
55575;SDS011;41437;45.478;9.116;2022-11-20T03:33:28;27.67;;;17.80;;
55575;SDS011;41437;45.478;9.116;2022-11-20T03:36:30;26.63;;;17.48;;
55575;SDS011;41437;45.478;9.116;2022-11-20T03:39:32;29.42;;;18.75;;
55575;SDS011;41437;45.478;9.116;2022-11-20T03:42:35;27.13;;;17.45;;
55575;SDS011;41437;45.478;9.116;2022-11-20T03:45:48;27.80;;;18.23;;
55575;SDS011;41437;45.478;9.116;2022-11-20T03:48:50;27.63;;;16.95;;
55575;SDS011;41437;45.478;9.116;2022-11-20T03:51:52;26.08;;;17.08;;
55575;SDS011;41437;45.478;9.116;2022-11-20T03:54:54;24.08;;;16.35;;
55575;SDS011;41437;45.478;9.116;2022-11-20T04:04:44;29.65;;;17.27;;
55575;SDS011;41437;45.478;9.116;2022-11-20T04:07:46;28.05;;;17.55;;
55575;SDS011;41437;45.478;9.116;2022-11-20T04:10:47;30.00;;;18.17;;
55575;SDS011;41437;45.478;9.116;2022-11-20T04:13:50;28.95;;;18.00;;
55575;SDS011;41437;45.478;9.116;2022-11-20T04:16:54;29.42;;;17.77;;
55575;SDS011;41437;45.478;9.116;2022-11-20T04:19:55;24.27;;;17.00;;
55575;SDS011;41437;45.478;9.116;2022-11-20T04:22:57;28.27;;;17.58;;
55575;SDS011;41437;45.478;9.116;2022-11-20T04:26:02;26.00;;;16.60;;
55575;SDS011;41437;45.478;9.116;2022-11-20T04:29:04;27.40;;;16.25;;
55575;SDS011;41437;45.478;9.116;2022-11-20T04:32:08;23.73;;;15.25;;
55575;SDS011;41437;45.478;9.116;2022-11-20T04:35:09;26.17;;;15.85;;
55575;SDS011;41437;45.478;9.116;2022-11-20T04:38:11;24.08;;;15.88;;
55575;SDS011;41437;45.478;9.116;2022-11-20T04:41:14;25.08;;;16.08;;
55575;SDS011;41437;45.478;9.116;2022-11-20T04:44:17;25.58;;;15.55;;
55575;SDS011;41437;45.478;9.116;2022-11-20T04:47:20;22.20;;;14.98;;
55575;SDS011;41437;45.478;9.116;2022-11-20T04:50:22;24.88;;;14.82;;
55575;SDS011;41437;45.478;9.116;2022-11-20T04:53:23;24.10;;;14.70;;
55575;SDS011;41437;45.478;9.116;2022-11-20T04:56:25;23.30;;;14.65;;
55575;SDS011;41437;45.478;9.116;2022-11-20T04:59:27;23.38;;;14.48;;
55575;SDS011;41437;45.478;9.116;2022-11-20T05:02:31;23.48;;;15.02;;
55575;SDS011;41437;45.478;9.116;2022-11-20T05:05:33;24.85;;;14.20;;
55575;SDS011;41437;45.478;9.116;2022-11-20T05:08:35;24.00;;;14.10;;
55575;SDS011;41437;45.478;9.116;2022-11-20T05:11:36;21.73;;;14.27;;
55575;SDS011;41437;45.478;9.116;2022-11-20T05:14:39;21.50;;;14.07;;
55575;SDS011;41437;45.478;9.116;2022-11-20T05:17:44;24.83;;;14.73;;
55575;SDS011;41437;45.478;9.116;2022-11-20T05:20:54;23.90;;;14.77;;
55575;SDS011;41437;45.478;9.116;2022-11-20T05:23:56;22.95;;;13.52;;
55575;SDS011;41437;45.478;9.116;2022-11-20T05:26:59;20.92;;;13.88;;
55575;SDS011;41437;45.478;9.116;2022-11-20T05:30:00;22.83;;;14.38;;
55575;SDS011;41437;45.478;9.116;2022-11-20T05:33:04;21.83;;;13.38;;
55575;SDS011;41437;45.478;9.116;2022-11-20T05:36:06;23.45;;;14.23;;
55575;SDS011;41437;45.478;9.116;2022-11-20T05:39:08;20.83;;;13.40;;
55575;SDS011;41437;45.478;9.116;2022-11-20T05:42:09;22.65;;;13.60;;
55575;SDS011;41437;45.478;9.116;2022-11-20T05:45:28;22.85;;;14.32;;
55575;SDS011;41437;45.478;9.116;2022-11-20T05:48:32;23.25;;;13.70;;
55575;SDS011;41437;45.478;9.116;2022-11-20T05:51:34;20.52;;;13.85;;
55575;SDS011;41437;45.478;9.116;2022-11-20T05:54:36;21.27;;;13.73;;
55575;SDS011;41437;45.478;9.116;2022-11-20T05:57:38;20.00;;;13.32;;
55575;SDS011;41437;45.478;9.116;2022-11-20T06:00:39;22.80;;;14.63;;
55575;SDS011;41437;45.478;9.116;2022-11-20T06:03:42;20.05;;;12.45;;
55575;SDS011;41437;45.478;9.116;2022-11-20T06:06:47;20.70;;;13.52;;
55575;SDS011;41437;45.478;9.116;2022-11-20T06:09:49;17.25;;;11.10;;
55575;SDS011;41437;45.478;9.116;2022-11-20T06:12:51;19.88;;;11.75;;
55575;SDS011;41437;45.478;9.116;2022-11-20T06:15:53;18.48;;;11.23;;
55575;SDS011;41437;45.478;9.116;2022-11-20T06:18:56;16.30;;;10.80;;
55575;SDS011;41437;45.478;9.116;2022-11-20T06:21:58;18.15;;;10.50;;
55575;SDS011;41437;45.478;9.116;2022-11-20T06:24:59;20.00;;;11.32;;
55575;SDS011;41437;45.478;9.116;2022-11-20T06:28:01;16.55;;;11.05;;
55575;SDS011;41437;45.478;9.116;2022-11-20T06:31:03;16.02;;;10.55;;
55575;SDS011;41437;45.478;9.116;2022-11-20T06:34:07;16.52;;;10.02;;
55575;SDS011;41437;45.478;9.116;2022-11-20T06:37:09;17.55;;;10.85;;
55575;SDS011;41437;45.478;9.116;2022-11-20T06:40:12;16.80;;;10.80;;
55575;SDS011;41437;45.478;9.116;2022-11-20T06:43:14;15.87;;;10.60;;
55575;SDS011;41437;45.478;9.116;2022-11-20T06:46:17;17.00;;;10.67;;
55575;SDS011;41437;45.478;9.116;2022-11-20T06:49:21;16.77;;;10.30;;
55575;SDS011;41437;45.478;9.116;2022-11-20T06:52:23;17.33;;;10.93;;
55575;SDS011;41437;45.478;9.116;2022-11-20T06:55:25;15.95;;;10.50;;
55575;SDS011;41437;45.478;9.116;2022-11-20T06:58:28;15.77;;;10.20;;
55575;SDS011;41437;45.478;9.116;2022-11-20T07:01:31;15.95;;;10.10;;
55575;SDS011;41437;45.478;9.116;2022-11-20T07:04:34;16.05;;;10.20;;
55575;SDS011;41437;45.478;9.116;2022-11-20T07:07:36;15.77;;;9.98;;
55575;SDS011;41437;45.478;9.116;2022-11-20T07:10:37;15.75;;;9.60;;
55575;SDS011;41437;45.478;9.116;2022-11-20T07:13:39;14.88;;;9.27;;
55575;SDS011;41437;45.478;9.116;2022-11-20T07:16:41;14.82;;;8.98;;
55575;SDS011;41437;45.478;9.116;2022-11-20T07:19:44;14.98;;;9.02;;
55575;SDS011;41437;45.478;9.116;2022-11-20T07:22:45;15.50;;;9.60;;
55575;SDS011;41437;45.478;9.116;2022-11-20T07:25:49;14.32;;;9.95;;
55575;SDS011;41437;45.478;9.116;2022-11-20T07:28:52;16.05;;;10.45;;
55575;SDS011;41437;45.478;9.116;2022-11-20T07:31:54;12.60;;;8.32;;
55575;SDS011;41437;45.478;9.116;2022-11-20T07:34:57;14.27;;;7.85;;
55575;SDS011;41437;45.478;9.116;2022-11-20T07:37:59;11.43;;;7.77;;
55575;SDS011;41437;45.478;9.116;2022-11-20T07:41:01;13.75;;;7.93;;
55575;SDS011;41437;45.478;9.116;2022-11-20T07:44:03;13.18;;;7.80;;
55575;SDS011;41437;45.478;9.116;2022-11-20T07:47:07;13.13;;;7.65;;
55575;SDS011;41437;45.478;9.116;2022-11-20T07:50:10;9.85;;;6.88;;
55575;SDS011;41437;45.478;9.116;2022-11-20T07:53:13;10.88;;;6.78;;
55575;SDS011;41437;45.478;9.116;2022-11-20T07:56:20;12.15;;;6.53;;
55575;SDS011;41437;45.478;9.116;2022-11-20T07:59:23;9.90;;;6.70;;
55575;SDS011;41437;45.478;9.116;2022-11-20T08:02:24;10.27;;;5.88;;
55575;SDS011;41437;45.478;9.116;2022-11-20T08:05:28;11.63;;;6.30;;
55575;SDS011;41437;45.478;9.116;2022-11-20T08:08:29;10.98;;;6.70;;
55575;SDS011;41437;45.478;9.116;2022-11-20T08:11:31;9.93;;;6.90;;
55575;SDS011;41437;45.478;9.116;2022-11-20T08:14:50;13.23;;;7.55;;
55575;SDS011;41437;45.478;9.116;2022-11-20T08:17:52;12.48;;;7.57;;
55575;SDS011;41437;45.478;9.116;2022-11-20T08:21:02;11.23;;;7.82;;
55575;SDS011;41437;45.478;9.116;2022-11-20T08:24:05;12.70;;;7.80;;
55575;SDS011;41437;45.478;9.116;2022-11-20T08:27:08;12.73;;;7.53;;
55575;SDS011;41437;45.478;9.116;2022-11-20T08:30:10;13.23;;;7.97;;
55575;SDS011;41437;45.478;9.116;2022-11-20T08:33:13;14.57;;;7.97;;
55575;SDS011;41437;45.478;9.116;2022-11-20T08:36:16;12.18;;;7.00;;
55575;SDS011;41437;45.478;9.116;2022-11-20T08:39:21;13.40;;;7.05;;
55575;SDS011;41437;45.478;9.116;2022-11-20T08:42:22;11.35;;;6.97;;
55575;SDS011;41437;45.478;9.116;2022-11-20T08:45:24;12.23;;;7.40;;
55575;SDS011;41437;45.478;9.116;2022-11-20T08:48:25;10.80;;;7.13;;
55575;SDS011;41437;45.478;9.116;2022-11-20T08:51:28;13.18;;;7.75;;
55575;SDS011;41437;45.478;9.116;2022-11-20T08:54:30;12.40;;;7.30;;
55575;SDS011;41437;45.478;9.116;2022-11-20T08:57:32;10.77;;;7.25;;
55575;SDS011;41437;45.478;9.116;2022-11-20T09:00:34;10.05;;;7.25;;
55575;SDS011;41437;45.478;9.116;2022-11-20T09:03:36;11.13;;;7.60;;
55575;SDS011;41437;45.478;9.116;2022-11-20T09:06:39;9.10;;;6.70;;
55575;SDS011;41437;45.478;9.116;2022-11-20T09:09:41;10.70;;;7.03;;
55575;SDS011;41437;45.478;9.116;2022-11-20T09:12:43;10.93;;;7.10;;
55575;SDS011;41437;45.478;9.116;2022-11-20T09:15:44;11.02;;;6.90;;
55575;SDS011;41437;45.478;9.116;2022-11-20T09:18:46;10.65;;;7.25;;
55575;SDS011;41437;45.478;9.116;2022-11-20T09:24:55;9.82;;;6.30;;
55575;SDS011;41437;45.478;9.116;2022-11-20T09:27:57;10.35;;;6.05;;
55575;SDS011;41437;45.478;9.116;2022-11-20T09:30:59;8.77;;;5.90;;
55575;SDS011;41437;45.478;9.116;2022-11-20T09:34:01;9.95;;;5.53;;
55575;SDS011;41437;45.478;9.116;2022-11-20T09:37:04;11.77;;;6.13;;
55575;SDS011;41437;45.478;9.116;2022-11-20T09:40:09;11.55;;;6.00;;
55575;SDS011;41437;45.478;9.116;2022-11-20T09:43:20;8.55;;;5.22;;
55575;SDS011;41437;45.478;9.116;2022-11-20T09:46:33;8.77;;;5.47;;
55575;SDS011;41437;45.478;9.116;2022-11-20T09:49:47;9.20;;;5.95;;
55575;SDS011;41437;45.478;9.116;2022-11-20T09:53:07;9.80;;;4.93;;
55575;SDS011;41437;45.478;9.116;2022-11-20T09:56:14;8.07;;;4.63;;
55575;SDS011;41437;45.478;9.116;2022-11-20T09:59:25;7.00;;;4.10;;
55575;SDS011;41437;45.478;9.116;2022-11-20T10:02:35;7.75;;;4.45;;
55575;SDS011;41437;45.478;9.116;2022-11-20T10:05:43;6.32;;;4.40;;
55575;SDS011;41437;45.478;9.116;2022-11-20T10:08:50;11.23;;;5.10;;
55575;SDS011;41437;45.478;9.116;2022-11-20T10:12:00;8.48;;;5.45;;
55575;SDS011;41437;45.478;9.116;2022-11-20T10:15:14;10.10;;;5.25;;
55575;SDS011;41437;45.478;9.116;2022-11-20T10:18:30;8.05;;;4.82;;
55575;SDS011;41437;45.478;9.116;2022-11-20T10:21:41;8.18;;;5.32;;
55575;SDS011;41437;45.478;9.116;2022-11-20T10:28:13;7.43;;;4.90;;
55575;SDS011;41437;45.478;9.116;2022-11-20T10:31:25;8.52;;;4.75;;
55575;SDS011;41437;45.478;9.116;2022-11-20T10:34:34;7.22;;;4.88;;
55575;SDS011;41437;45.478;9.116;2022-11-20T10:37:43;7.63;;;5.00;;
55575;SDS011;41437;45.478;9.116;2022-11-20T10:40:51;9.02;;;5.05;;
55575;SDS011;41437;45.478;9.116;2022-11-20T10:44:17;9.27;;;5.90;;
55575;SDS011;41437;45.478;9.116;2022-11-20T10:47:35;9.52;;;6.03;;
55575;SDS011;41437;45.478;9.116;2022-11-20T10:50:39;12.00;;;7.28;;
55575;SDS011;41437;45.478;9.116;2022-11-20T10:53:58;13.27;;;8.77;;
55575;SDS011;41437;45.478;9.116;2022-11-20T10:57:18;15.98;;;9.95;;
55575;SDS011;41437;45.478;9.116;2022-11-20T11:00:26;14.98;;;10.77;;
55575;SDS011;41437;45.478;9.116;2022-11-20T11:03:28;18.25;;;11.45;;
55575;SDS011;41437;45.478;9.116;2022-11-20T11:06:36;18.38;;;11.23;;
55575;SDS011;41437;45.478;9.116;2022-11-20T11:09:44;16.00;;;11.02;;
55575;SDS011;41437;45.478;9.116;2022-11-20T11:12:50;15.85;;;10.85;;
55575;SDS011;41437;45.478;9.116;2022-11-20T11:15:52;14.73;;;10.45;;
55575;SDS011;41437;45.478;9.116;2022-11-20T11:19:03;16.08;;;10.90;;
55575;SDS011;41437;45.478;9.116;2022-11-20T11:22:05;15.95;;;10.45;;
55575;SDS011;41437;45.478;9.116;2022-11-20T11:25:23;14.57;;;9.68;;
55575;SDS011;41437;45.478;9.116;2022-11-20T11:28:30;14.45;;;9.52;;
55575;SDS011;41437;45.478;9.116;2022-11-20T11:31:32;13.35;;;9.50;;
55575;SDS011;41437;45.478;9.116;2022-11-20T11:34:35;12.80;;;9.50;;
55575;SDS011;41437;45.478;9.116;2022-11-20T11:37:37;15.15;;;9.10;;
55575;SDS011;41437;45.478;9.116;2022-11-20T11:40:40;14.83;;;9.57;;
55575;SDS011;41437;45.478;9.116;2022-11-20T11:43:49;14.48;;;9.40;;
55575;SDS011;41437;45.478;9.116;2022-11-20T11:47:11;13.10;;;8.70;;
55575;SDS011;41437;45.478;9.116;2022-11-20T11:50:22;13.55;;;9.32;;
55575;SDS011;41437;45.478;9.116;2022-11-20T11:56:28;14.18;;;8.75;;
55575;SDS011;41437;45.478;9.116;2022-11-20T11:59:38;14.48;;;8.52;;
55575;SDS011;41437;45.478;9.116;2022-11-20T12:02:51;13.15;;;8.70;;
55575;SDS011;41437;45.478;9.116;2022-11-20T12:05:59;11.82;;;8.40;;
55575;SDS011;41437;45.478;9.116;2022-11-20T12:09:08;13.48;;;8.05;;
55575;SDS011;41437;45.478;9.116;2022-11-20T12:12:13;12.70;;;8.60;;
55575;SDS011;41437;45.478;9.116;2022-11-20T12:15:25;13.43;;;8.60;;
55575;SDS011;41437;45.478;9.116;2022-11-20T12:18:30;12.43;;;7.80;;
55575;SDS011;41437;45.478;9.116;2022-11-20T12:21:33;13.93;;;7.65;;
55575;SDS011;41437;45.478;9.116;2022-11-20T12:24:46;11.10;;;7.70;;
55575;SDS011;41437;45.478;9.116;2022-11-20T12:28:08;10.80;;;7.32;;
55575;SDS011;41437;45.478;9.116;2022-11-20T12:31:35;10.40;;;6.43;;
55575;SDS011;41437;45.478;9.116;2022-11-20T12:34:47;9.27;;;6.00;;
55575;SDS011;41437;45.478;9.116;2022-11-20T12:38:06;10.25;;;6.43;;
55575;SDS011;41437;45.478;9.116;2022-11-20T12:41:23;10.02;;;6.35;;
55575;SDS011;41437;45.478;9.116;2022-11-20T12:48:53;8.85;;;5.65;;
55575;SDS011;41437;45.478;9.116;2022-11-20T12:52:25;9.20;;;6.15;;
55575;SDS011;41437;45.478;9.116;2022-11-20T12:55:42;10.00;;;6.25;;
55575;SDS011;41437;45.478;9.116;2022-11-20T12:58:53;10.82;;;6.53;;
55575;SDS011;41437;45.478;9.116;2022-11-20T13:02:09;11.02;;;6.28;;
55575;SDS011;41437;45.478;9.116;2022-11-20T13:05:27;8.90;;;5.78;;
55575;SDS011;41437;45.478;9.116;2022-11-20T13:08:38;8.68;;;5.20;;
55575;SDS011;41437;45.478;9.116;2022-11-20T13:11:43;9.05;;;5.30;;
55575;SDS011;41437;45.478;9.116;2022-11-20T13:14:50;8.50;;;4.72;;
55575;SDS011;41437;45.478;9.116;2022-11-20T13:18:00;9.43;;;4.43;;
55575;SDS011;41437;45.478;9.116;2022-11-20T13:21:14;7.40;;;4.55;;
55575;SDS011;41437;45.478;9.116;2022-11-20T13:24:20;7.07;;;4.18;;
55575;SDS011;41437;45.478;9.116;2022-11-20T13:27:27;6.38;;;3.80;;
55575;SDS011;41437;45.478;9.116;2022-11-20T13:30:31;6.15;;;3.10;;
55575;SDS011;41437;45.478;9.116;2022-11-20T13:33:33;8.50;;;3.13;;
55575;SDS011;41437;45.478;9.116;2022-11-20T13:36:47;4.97;;;2.90;;
55575;SDS011;41437;45.478;9.116;2022-11-20T13:39:50;6.13;;;3.10;;
55575;SDS011;41437;45.478;9.116;2022-11-20T13:42:55;6.05;;;3.33;;
55575;SDS011;41437;45.478;9.116;2022-11-20T13:46:02;5.10;;;2.80;;
55575;SDS011;41437;45.478;9.116;2022-11-20T13:49:07;5.40;;;3.05;;
55575;SDS011;41437;45.478;9.116;2022-11-20T13:52:22;5.63;;;2.90;;
55575;SDS011;41437;45.478;9.116;2022-11-20T13:55:38;5.10;;;2.58;;
55575;SDS011;41437;45.478;9.116;2022-11-20T13:58:49;4.53;;;2.58;;
55575;SDS011;41437;45.478;9.116;2022-11-20T14:01:58;4.70;;;2.50;;
55575;SDS011;41437;45.478;9.116;2022-11-20T14:05:02;4.40;;;2.47;;
55575;SDS011;41437;45.478;9.116;2022-11-20T14:08:11;5.60;;;2.55;;
55575;SDS011;41437;45.478;9.116;2022-11-20T14:11:21;6.10;;;2.35;;
55575;SDS011;41437;45.478;9.116;2022-11-20T14:14:25;5.28;;;2.67;;
55575;SDS011;41437;45.478;9.116;2022-11-20T14:17:30;5.50;;;2.40;;
55575;SDS011;41437;45.478;9.116;2022-11-20T14:20:33;7.50;;;2.67;;
55575;SDS011;41437;45.478;9.116;2022-11-20T14:23:36;5.38;;;2.72;;
55575;SDS011;41437;45.478;9.116;2022-11-20T14:26:41;6.78;;;2.85;;
55575;SDS011;41437;45.478;9.116;2022-11-20T14:29:44;5.65;;;3.10;;
55575;SDS011;41437;45.478;9.116;2022-11-20T14:32:47;5.82;;;3.30;;
55575;SDS011;41437;45.478;9.116;2022-11-20T14:35:51;5.85;;;3.05;;
55575;SDS011;41437;45.478;9.116;2022-11-20T14:38:59;5.72;;;2.90;;
55575;SDS011;41437;45.478;9.116;2022-11-20T14:42:01;7.63;;;3.20;;
55575;SDS011;41437;45.478;9.116;2022-11-20T14:45:03;6.85;;;3.22;;
55575;SDS011;41437;45.478;9.116;2022-11-20T14:48:05;6.60;;;3.20;;
55575;SDS011;41437;45.478;9.116;2022-11-20T14:51:10;6.65;;;3.20;;
55575;SDS011;41437;45.478;9.116;2022-11-20T14:54:15;5.78;;;2.85;;
55575;SDS011;41437;45.478;9.116;2022-11-20T14:57:22;7.07;;;3.50;;
55575;SDS011;41437;45.478;9.116;2022-11-20T15:00:26;7.97;;;3.90;;
55575;SDS011;41437;45.478;9.116;2022-11-20T15:03:32;9.07;;;4.40;;
55575;SDS011;41437;45.478;9.116;2022-11-20T15:06:35;9.88;;;4.75;;
55575;SDS011;41437;45.478;9.116;2022-11-20T15:09:38;10.43;;;5.07;;
55575;SDS011;41437;45.478;9.116;2022-11-20T15:12:41;9.38;;;4.97;;
55575;SDS011;41437;45.478;9.116;2022-11-20T15:15:49;10.05;;;4.50;;
55575;SDS011;41437;45.478;9.116;2022-11-20T15:18:52;8.55;;;4.53;;
55575;SDS011;41437;45.478;9.116;2022-11-20T15:21:53;9.13;;;4.38;;
55575;SDS011;41437;45.478;9.116;2022-11-20T15:24:56;8.85;;;4.13;;
55575;SDS011;41437;45.478;9.116;2022-11-20T15:28:02;8.25;;;3.97;;
55575;SDS011;41437;45.478;9.116;2022-11-20T15:31:04;9.10;;;3.70;;
55575;SDS011;41437;45.478;9.116;2022-11-20T15:34:08;8.73;;;4.10;;
55575;SDS011;41437;45.478;9.116;2022-11-20T15:37:11;8.48;;;3.97;;
55575;SDS011;41437;45.478;9.116;2022-11-20T15:40:15;11.35;;;4.38;;
55575;SDS011;41437;45.478;9.116;2022-11-20T15:43:16;8.63;;;4.50;;
55575;SDS011;41437;45.478;9.116;2022-11-20T15:46:19;10.13;;;4.50;;
55575;SDS011;41437;45.478;9.116;2022-11-20T15:49:27;9.23;;;4.43;;
55575;SDS011;41437;45.478;9.116;2022-11-20T15:52:28;8.40;;;4.20;;
55575;SDS011;41437;45.478;9.116;2022-11-20T15:55:31;11.27;;;4.78;;
55575;SDS011;41437;45.478;9.116;2022-11-20T15:58:33;8.70;;;4.50;;
55575;SDS011;41437;45.478;9.116;2022-11-20T16:01:35;8.05;;;4.53;;
55575;SDS011;41437;45.478;9.116;2022-11-20T16:04:36;10.55;;;5.63;;
55575;SDS011;41437;45.478;9.116;2022-11-20T16:07:40;9.45;;;5.40;;
55575;SDS011;41437;45.478;9.116;2022-11-20T16:10:43;9.25;;;5.55;;
55575;SDS011;41437;45.478;9.116;2022-11-20T16:13:45;11.00;;;5.45;;
55575;SDS011;41437;45.478;9.116;2022-11-20T16:17:04;8.95;;;5.30;;
55575;SDS011;41437;45.478;9.116;2022-11-20T16:20:09;13.82;;;5.82;;
55575;SDS011;41437;45.478;9.116;2022-11-20T16:23:12;8.85;;;5.15;;
55575;SDS011;41437;45.478;9.116;2022-11-20T16:26:16;11.00;;;6.13;;
55575;SDS011;41437;45.478;9.116;2022-11-20T16:29:19;26.45;;;23.38;;
55575;SDS011;41437;45.478;9.116;2022-11-20T16:32:20;15.02;;;11.52;;
55575;SDS011;41437;45.478;9.116;2022-11-20T16:35:22;12.95;;;7.75;;
55575;SDS011;41437;45.478;9.116;2022-11-20T16:38:23;13.23;;;7.40;;
55575;SDS011;41437;45.478;9.116;2022-11-20T16:41:27;14.07;;;8.63;;
55575;SDS011;41437;45.478;9.116;2022-11-20T16:44:30;10.38;;;6.43;;
55575;SDS011;41437;45.478;9.116;2022-11-20T16:47:32;13.48;;;7.53;;
55575;SDS011;41437;45.478;9.116;2022-11-20T16:50:34;12.45;;;7.20;;
55575;SDS011;41437;45.478;9.116;2022-11-20T16:53:35;15.10;;;8.20;;
55575;SDS011;41437;45.478;9.116;2022-11-20T16:56:39;14.70;;;7.88;;
55575;SDS011;41437;45.478;9.116;2022-11-20T16:59:40;12.35;;;7.22;;
55575;SDS011;41437;45.478;9.116;2022-11-20T17:02:42;13.32;;;7.88;;
55575;SDS011;41437;45.478;9.116;2022-11-20T17:05:44;17.83;;;7.80;;
55575;SDS011;41437;45.478;9.116;2022-11-20T17:08:46;12.50;;;7.43;;
55575;SDS011;41437;45.478;9.116;2022-11-20T17:11:49;11.98;;;6.95;;
55575;SDS011;41437;45.478;9.116;2022-11-20T17:14:54;15.27;;;7.73;;
55575;SDS011;41437;45.478;9.116;2022-11-20T17:17:56;13.73;;;7.13;;
55575;SDS011;41437;45.478;9.116;2022-11-20T17:20:58;12.27;;;7.70;;
55575;SDS011;41437;45.478;9.116;2022-11-20T17:24:04;14.90;;;7.68;;
55575;SDS011;41437;45.478;9.116;2022-11-20T17:27:08;13.00;;;8.07;;
55575;SDS011;41437;45.478;9.116;2022-11-20T17:30:12;12.25;;;7.38;;
55575;SDS011;41437;45.478;9.116;2022-11-20T17:33:15;15.88;;;8.20;;
55575;SDS011;41437;45.478;9.116;2022-11-20T17:36:17;13.60;;;7.90;;
55575;SDS011;41437;45.478;9.116;2022-11-20T17:39:19;13.95;;;8.27;;
55575;SDS011;41437;45.478;9.116;2022-11-20T17:42:25;13.18;;;8.05;;
55575;SDS011;41437;45.478;9.116;2022-11-20T17:45:28;14.52;;;8.05;;
55575;SDS011;41437;45.478;9.116;2022-11-20T17:48:30;14.57;;;8.77;;
55575;SDS011;41437;45.478;9.116;2022-11-20T17:51:32;19.08;;;8.75;;
55575;SDS011;41437;45.478;9.116;2022-11-20T17:54:35;14.63;;;8.57;;
55575;SDS011;41437;45.478;9.116;2022-11-20T17:57:37;15.07;;;8.60;;
55575;SDS011;41437;45.478;9.116;2022-11-20T18:01:03;14.43;;;8.48;;
55575;SDS011;41437;45.478;9.116;2022-11-20T18:04:05;14.70;;;9.32;;
55575;SDS011;41437;45.478;9.116;2022-11-20T18:07:07;18.23;;;9.40;;
55575;SDS011;41437;45.478;9.116;2022-11-20T18:10:08;18.05;;;9.18;;
55575;SDS011;41437;45.478;9.116;2022-11-20T18:13:11;15.70;;;8.73;;
55575;SDS011;41437;45.478;9.116;2022-11-20T18:16:13;17.70;;;9.85;;
55575;SDS011;41437;45.478;9.116;2022-11-20T18:19:15;13.88;;;8.95;;
55575;SDS011;41437;45.478;9.116;2022-11-20T18:22:18;14.95;;;8.85;;
55575;SDS011;41437;45.478;9.116;2022-11-20T18:25:20;16.17;;;9.50;;
55575;SDS011;41437;45.478;9.116;2022-11-20T18:28:23;17.98;;;10.07;;
55575;SDS011;41437;45.478;9.116;2022-11-20T18:31:25;14.85;;;9.88;;
55575;SDS011;41437;45.478;9.116;2022-11-20T18:34:27;17.27;;;9.60;;
55575;SDS011;41437;45.478;9.116;2022-11-20T18:37:31;15.60;;;9.77;;
55575;SDS011;41437;45.478;9.116;2022-11-20T18:40:33;17.10;;;10.20;;
55575;SDS011;41437;45.478;9.116;2022-11-20T18:43:36;17.45;;;10.02;;